sensor_id;sensor_type;location;lat;lon;timestamp;pressure;altitude;pressure_sealevel;temperature;humidity
19236;BME280;9752;54.270;12.470;2023-03-20T00:02:04;102587.41;;;8.27;100.00
19236;BME280;9752;54.270;12.470;2023-03-20T00:07:06;102602.63;;;8.24;100.00
19236;BME280;9752;54.270;12.470;2023-03-20T00:12:12;102607.19;;;8.00;100.00
19236;BME280;9752;54.270;12.470;2023-03-20T00:17:18;102597.31;;;7.78;100.00
19236;BME280;9752;54.270;12.470;2023-03-20T00:22:21;102615.25;;;7.94;100.00
19236;BME280;9752;54.270;12.470;2023-03-20T00:27:23;102645.97;;;8.35;100.00
19236;BME280;9752;54.270;12.470;2023-03-20T00:32:29;102675.75;;;8.40;100.00
19236;BME280;9752;54.270;12.470;2023-03-20T00:37:33;102659.94;;;8.11;100.00
19236;BME280;9752;54.270;12.470;2023-03-20T00:42:36;102663.41;;;7.85;100.00
19236;BME280;9752;54.270;12.470;2023-03-20T00:47:41;102646.16;;;7.51;100.00
19236;BME280;9752;54.270;12.470;2023-03-20T00:52:43;102640.53;;;7.13;100.00
19236;BME280;9752;54.270;12.470;2023-03-20T00:57:48;102638.41;;;7.09;100.00
19236;BME280;9752;54.270;12.470;2023-03-20T01:02:55;102642.69;;;6.92;100.00
19236;BME280;9752;54.270;12.470;2023-03-20T01:08:00;102642.59;;;6.75;100.00
19236;BME280;9752;54.270;12.470;2023-03-20T01:13:04;102650.94;;;6.72;100.00
19236;BME280;9752;54.270;12.470;2023-03-20T01:18:11;102662.78;;;6.70;100.00
19236;BME280;9752;54.270;12.470;2023-03-20T01:23:14;102673.53;;;6.66;100.00
19236;BME280;9752;54.270;12.470;2023-03-20T01:28:19;102681.66;;;6.62;100.00
19236;BME280;9752;54.270;12.470;2023-03-20T01:33:23;102703.69;;;6.67;100.00
19236;BME280;9752;54.270;12.470;2023-03-20T01:38:29;102714.34;;;6.70;100.00
19236;BME280;9752;54.270;12.470;2023-03-20T01:43:34;102721.47;;;6.73;100.00
19236;BME280;9752;54.270;12.470;2023-03-20T01:48:57;102721.22;;;6.78;100.00
19236;BME280;9752;54.270;12.470;2023-03-20T01:54:04;102741.69;;;6.77;100.00
19236;BME280;9752;54.270;12.470;2023-03-20T01:59:15;102733.78;;;6.75;100.00
19236;BME280;9752;54.270;12.470;2023-03-20T02:04:24;102736.47;;;6.68;100.00
19236;BME280;9752;54.270;12.470;2023-03-20T02:09:30;102742.94;;;6.80;100.00
19236;BME280;9752;54.270;12.470;2023-03-20T02:14:38;102741.94;;;6.87;100.00
19236;BME280;9752;54.270;12.470;2023-03-20T02:20:00;102745.31;;;6.95;100.00
19236;BME280;9752;54.270;12.470;2023-03-20T02:25:35;102756.34;;;7.10;100.00
19236;BME280;9752;54.270;12.470;2023-03-20T02:30:55;102774.28;;;7.17;100.00
19236;BME280;9752;54.270;12.470;2023-03-20T02:36:55;102781.28;;;7.18;100.00
19236;BME280;9752;54.270;12.470;2023-03-20T02:42:17;102788.69;;;7.15;100.00
19236;BME280;9752;54.270;12.470;2023-03-20T02:47:28;102800.22;;;7.10;100.00
19236;BME280;9752;54.270;12.470;2023-03-20T02:52:45;102793.47;;;7.03;100.00
19236;BME280;9752;54.270;12.470;2023-03-20T02:57:58;102797.41;;;6.99;100.00
19236;BME280;9752;54.270;12.470;2023-03-20T03:03:07;102802.81;;;6.94;100.00
19236;BME280;9752;54.270;12.470;2023-03-20T03:08:15;102816.47;;;6.93;100.00
19236;BME280;9752;54.270;12.470;2023-03-20T03:13:26;102818.06;;;6.83;100.00
19236;BME280;9752;54.270;12.470;2023-03-20T03:18:34;102819.41;;;6.80;100.00
19236;BME280;9752;54.270;12.470;2023-03-20T03:23:41;102824.56;;;6.80;100.00
19236;BME280;9752;54.270;12.470;2023-03-20T03:28:50;102821.06;;;6.79;100.00
19236;BME280;9752;54.270;12.470;2023-03-20T03:33:55;102735.03;;;6.79;100.00
19236;BME280;9752;54.270;12.470;2023-03-20T03:38:58;102719.81;;;6.98;100.00
19236;BME280;9752;54.270;12.470;2023-03-20T03:44:11;102729.50;;;6.92;100.00
19236;BME280;9752;54.270;12.470;2023-03-20T03:49:15;102748.19;;;7.14;100.00
19236;BME280;9752;54.270;12.470;2023-03-20T03:54:21;102736.72;;;7.03;100.00
19236;BME280;9752;54.270;12.470;2023-03-20T03:59:50;102736.44;;;7.09;100.00
19236;BME280;9752;54.270;12.470;2023-03-20T04:04:54;102730.38;;;7.08;100.00
19236;BME280;9752;54.270;12.470;2023-03-20T04:09:56;102714.31;;;7.11;100.00
19236;BME280;9752;54.270;12.470;2023-03-20T04:14:59;102698.53;;;7.16;100.00
19236;BME280;9752;54.270;12.470;2023-03-20T04:20:02;102688.50;;;7.11;100.00
19236;BME280;9752;54.270;12.470;2023-03-20T04:25:05;102679.69;;;7.09;100.00
19236;BME280;9752;54.270;12.470;2023-03-20T04:30:11;102660.56;;;7.07;100.00
19236;BME280;9752;54.270;12.470;2023-03-20T04:35:32;102647.66;;;7.07;100.00
19236;BME280;9752;54.270;12.470;2023-03-20T04:40:38;102631.53;;;7.00;100.00
19236;BME280;9752;54.270;12.470;2023-03-20T04:45:41;102634.75;;;7.07;100.00
19236;BME280;9752;54.270;12.470;2023-03-20T04:50:43;102620.16;;;6.98;100.00
19236;BME280;9752;54.270;12.470;2023-03-20T04:55:48;102619.72;;;7.02;100.00
19236;BME280;9752;54.270;12.470;2023-03-20T05:00:53;102590.28;;;6.76;100.00
19236;BME280;9752;54.270;12.470;2023-03-20T05:05:55;102584.59;;;6.87;100.00
19236;BME280;9752;54.270;12.470;2023-03-20T05:10:58;102587.34;;;6.89;100.00
19236;BME280;9752;54.270;12.470;2023-03-20T05:16:19;102568.00;;;6.76;100.00
19236;BME280;9752;54.270;12.470;2023-03-20T05:21:44;102569.66;;;6.76;100.00
19236;BME280;9752;54.270;12.470;2023-03-20T05:27:00;102576.28;;;6.65;100.00
19236;BME280;9752;54.270;12.470;2023-03-20T05:32:30;102565.78;;;6.39;100.00
19236;BME280;9752;54.270;12.470;2023-03-20T05:37:41;102565.81;;;5.98;100.00
19236;BME280;9752;54.270;12.470;2023-03-20T05:43:01;102573.00;;;5.94;100.00
19236;BME280;9752;54.270;12.470;2023-03-20T05:48:27;102562.81;;;5.71;100.00
19236;BME280;9752;54.270;12.470;2023-03-20T05:54:01;102576.00;;;5.42;100.00
19236;BME280;9752;54.270;12.470;2023-03-20T05:59:11;102574.50;;;5.44;100.00
19236;BME280;9752;54.270;12.470;2023-03-20T06:04:26;102570.97;;;5.51;100.00
19236;BME280;9752;54.270;12.470;2023-03-20T06:09:44;102568.81;;;5.46;100.00
19236;BME280;9752;54.270;12.470;2023-03-20T06:14:48;102566.38;;;5.48;100.00
19236;BME280;9752;54.270;12.470;2023-03-20T06:19:51;102565.16;;;5.44;100.00
19236;BME280;9752;54.270;12.470;2023-03-20T06:24:53;102572.03;;;5.53;100.00
19236;BME280;9752;54.270;12.470;2023-03-20T06:30:01;102580.75;;;5.62;100.00
19236;BME280;9752;54.270;12.470;2023-03-20T06:35:09;102576.50;;;5.78;100.00
19236;BME280;9752;54.270;12.470;2023-03-20T06:40:16;102591.28;;;5.72;100.00
19236;BME280;9752;54.270;12.470;2023-03-20T06:45:18;102589.06;;;5.75;100.00
19236;BME280;9752;54.270;12.470;2023-03-20T06:50:34;102586.75;;;6.01;100.00
19236;BME280;9752;54.270;12.470;2023-03-20T06:55:36;102599.69;;;6.10;100.00
19236;BME280;9752;54.270;12.470;2023-03-20T07:00:39;102603.44;;;6.21;100.00
19236;BME280;9752;54.270;12.470;2023-03-20T07:05:44;102607.97;;;6.39;100.00
19236;BME280;9752;54.270;12.470;2023-03-20T07:10:46;102586.22;;;6.29;100.00
19236;BME280;9752;54.270;12.470;2023-03-20T07:15:49;102585.25;;;6.44;100.00
19236;BME280;9752;54.270;12.470;2023-03-20T07:21:00;102582.03;;;6.38;100.00
19236;BME280;9752;54.270;12.470;2023-03-20T07:26:03;102578.31;;;6.52;100.00
19236;BME280;9752;54.270;12.470;2023-03-20T07:31:06;102566.41;;;6.61;100.00
19236;BME280;9752;54.270;12.470;2023-03-20T07:36:09;102563.44;;;6.74;100.00
19236;BME280;9752;54.270;12.470;2023-03-20T07:41:12;102533.59;;;6.51;100.00
19236;BME280;9752;54.270;12.470;2023-03-20T07:46:20;102519.72;;;6.75;100.00
19236;BME280;9752;54.270;12.470;2023-03-20T07:51:23;102514.44;;;6.82;100.00
19236;BME280;9752;54.270;12.470;2023-03-20T07:56:24;102505.97;;;6.92;100.00
19236;BME280;9752;54.270;12.470;2023-03-20T08:01:26;102492.69;;;7.05;100.00
19236;BME280;9752;54.270;12.470;2023-03-20T08:06:29;102496.09;;;7.56;100.00
19236;BME280;9752;54.270;12.470;2023-03-20T08:11:31;102476.06;;;7.36;100.00
19236;BME280;9752;54.270;12.470;2023-03-20T08:16:33;102464.50;;;7.76;100.00
19236;BME280;9752;54.270;12.470;2023-03-20T08:21:36;102435.66;;;7.46;100.00
19236;BME280;9752;54.270;12.470;2023-03-20T08:26:38;102416.50;;;7.09;100.00
19236;BME280;9752;54.270;12.470;2023-03-20T08:31:39;102397.38;;;7.33;100.00
19236;BME280;9752;54.270;12.470;2023-03-20T08:36:42;102390.38;;;7.06;100.00
19236;BME280;9752;54.270;12.470;2023-03-20T08:41:44;102389.19;;;7.11;100.00
19236;BME280;9752;54.270;12.470;2023-03-20T08:46:46;102383.22;;;6.94;100.00
19236;BME280;9752;54.270;12.470;2023-03-20T08:51:49;102369.13;;;6.99;100.00
19236;BME280;9752;54.270;12.470;2023-03-20T08:56:51;102361.84;;;6.87;100.00
19236;BME280;9752;54.270;12.470;2023-03-20T09:01:52;102355.78;;;6.95;100.00
19236;BME280;9752;54.270;12.470;2023-03-20T09:06:55;102331.78;;;6.78;100.00
19236;BME280;9752;54.270;12.470;2023-03-20T09:11:57;102309.50;;;6.88;100.00
19236;BME280;9752;54.270;12.470;2023-03-20T09:16:59;102299.47;;;6.99;100.00
19236;BME280;9752;54.270;12.470;2023-03-20T09:22:02;102297.97;;;7.10;100.00
19236;BME280;9752;54.270;12.470;2023-03-20T09:27:04;102267.63;;;7.08;100.00
19236;BME280;9752;54.270;12.470;2023-03-20T09:32:06;102255.34;;;6.96;100.00
19236;BME280;9752;54.270;12.470;2023-03-20T09:37:09;102238.34;;;6.98;100.00
19236;BME280;9752;54.270;12.470;2023-03-20T09:42:21;102236.50;;;6.97;100.00
19236;BME280;9752;54.270;12.470;2023-03-20T09:47:30;102239.31;;;7.44;100.00
19236;BME280;9752;54.270;12.470;2023-03-20T09:52:37;102224.94;;;7.11;100.00
19236;BME280;9752;54.270;12.470;2023-03-20T09:57:42;102228.00;;;7.16;100.00
19236;BME280;9752;54.270;12.470;2023-03-20T10:02:50;102222.53;;;7.13;100.00
19236;BME280;9752;54.270;12.470;2023-03-20T10:07:55;102215.09;;;7.07;100.00
19236;BME280;9752;54.270;12.470;2023-03-20T10:13:07;102218.72;;;7.27;100.00
19236;BME280;9752;54.270;12.470;2023-03-20T10:18:17;102216.16;;;7.09;100.00
19236;BME280;9752;54.270;12.470;2023-03-20T10:23:26;102213.41;;;7.16;100.00
19236;BME280;9752;54.270;12.470;2023-03-20T10:28:36;102206.44;;;7.07;100.00
19236;BME280;9752;54.270;12.470;2023-03-20T10:33:48;102200.19;;;7.22;100.00
19236;BME280;9752;54.270;12.470;2023-03-20T10:39:00;102185.19;;;7.18;100.00
19236;BME280;9752;54.270;12.470;2023-03-20T10:44:09;102185.66;;;7.50;100.00
19236;BME280;9752;54.270;12.470;2023-03-20T10:49:17;102178.78;;;7.23;100.00
19236;BME280;9752;54.270;12.470;2023-03-20T10:54:26;102186.22;;;7.65;100.00
19236;BME280;9752;54.270;12.470;2023-03-20T10:59:31;102178.63;;;7.67;100.00
19236;BME280;9752;54.270;12.470;2023-03-20T11:04:35;102169.06;;;7.85;100.00
19236;BME280;9752;54.270;12.470;2023-03-20T11:09:38;102146.81;;;7.76;100.00
19236;BME280;9752;54.270;12.470;2023-03-20T11:14:40;102134.16;;;7.79;100.00
19236;BME280;9752;54.270;12.470;2023-03-20T11:19:41;102108.19;;;7.59;100.00
19236;BME280;9752;54.270;12.470;2023-03-20T11:24:46;102093.50;;;7.68;100.00
19236;BME280;9752;54.270;12.470;2023-03-20T11:29:49;102077.13;;;7.68;100.00
19236;BME280;9752;54.270;12.470;2023-03-20T11:34:52;102058.75;;;7.46;100.00
19236;BME280;9752;54.270;12.470;2023-03-20T11:39:59;102059.34;;;7.71;100.00
19236;BME280;9752;54.270;12.470;2023-03-20T11:45:04;102048.34;;;7.54;100.00
19236;BME280;9752;54.270;12.470;2023-03-20T11:50:24;102053.31;;;7.34;100.00
19236;BME280;9752;54.270;12.470;2023-03-20T11:55:29;102057.69;;;7.62;100.00
19236;BME280;9752;54.270;12.470;2023-03-20T12:00:36;102048.28;;;7.63;100.00
19236;BME280;9752;54.270;12.470;2023-03-20T12:05:38;102053.47;;;7.63;100.00
19236;BME280;9752;54.270;12.470;2023-03-20T12:10:44;102050.69;;;7.70;100.00
19236;BME280;9752;54.270;12.470;2023-03-20T12:15:51;102046.63;;;7.63;100.00
19236;BME280;9752;54.270;12.470;2023-03-20T12:21:03;102050.56;;;7.41;100.00
19236;BME280;9752;54.270;12.470;2023-03-20T12:26:12;102054.06;;;7.60;100.00
19236;BME280;9752;54.270;12.470;2023-03-20T12:31:25;102057.69;;;7.62;100.00
19236;BME280;9752;54.270;12.470;2023-03-20T12:36:31;102054.78;;;7.68;100.00
19236;BME280;9752;54.270;12.470;2023-03-20T12:41:42;102061.22;;;7.82;100.00
19236;BME280;9752;54.270;12.470;2023-03-20T12:46:51;102055.50;;;7.76;100.00
19236;BME280;9752;54.270;12.470;2023-03-20T12:52:02;102066.31;;;7.91;100.00
19236;BME280;9752;54.270;12.470;2023-03-20T12:57:16;102061.47;;;8.23;100.00
19236;BME280;9752;54.270;12.470;2023-03-20T13:02:32;102065.44;;;8.38;100.00
19236;BME280;9752;54.270;12.470;2023-03-20T13:07:46;102043.44;;;8.33;100.00
19236;BME280;9752;54.270;12.470;2023-03-20T13:13:03;102049.81;;;8.66;100.00
19236;BME280;9752;54.270;12.470;2023-03-20T13:18:08;102036.19;;;8.58;100.00
19236;BME280;9752;54.270;12.470;2023-03-20T13:23:20;102023.66;;;8.34;100.00
19236;BME280;9752;54.270;12.470;2023-03-20T13:28:31;102009.53;;;8.49;100.00
19236;BME280;9752;54.270;12.470;2023-03-20T13:33:44;102000.06;;;8.79;100.00
19236;BME280;9752;54.270;12.470;2023-03-20T13:38:52;101974.66;;;8.65;100.00
19236;BME280;9752;54.270;12.470;2023-03-20T13:44:01;101958.25;;;8.64;100.00
19236;BME280;9752;54.270;12.470;2023-03-20T13:49:09;101942.06;;;8.67;100.00
19236;BME280;9752;54.270;12.470;2023-03-20T13:54:33;101920.53;;;8.37;100.00
19236;BME280;9752;54.270;12.470;2023-03-20T13:59:59;101913.09;;;8.50;100.00
19236;BME280;9752;54.270;12.470;2023-03-20T14:05:11;101904.69;;;8.63;100.00
19236;BME280;9752;54.270;12.470;2023-03-20T14:10:35;101891.38;;;8.58;100.00
19236;BME280;9752;54.270;12.470;2023-03-20T14:15:51;101897.50;;;8.40;100.00
19236;BME280;9752;54.270;12.470;2023-03-20T14:20:56;101880.66;;;8.54;100.00
19236;BME280;9752;54.270;12.470;2023-03-20T14:25:58;101867.00;;;8.36;100.00
19236;BME280;9752;54.270;12.470;2023-03-20T14:31:19;101863.31;;;8.43;100.00
19236;BME280;9752;54.270;12.470;2023-03-20T14:36:27;101849.81;;;8.26;100.00
19236;BME280;9752;54.270;12.470;2023-03-20T14:41:36;101850.91;;;8.09;100.00
19236;BME280;9752;54.270;12.470;2023-03-20T14:46:48;101846.50;;;7.98;100.00
19236;BME280;9752;54.270;12.470;2023-03-20T14:51:54;101841.84;;;8.04;100.00
19236;BME280;9752;54.270;12.470;2023-03-20T14:57:08;101835.13;;;8.06;100.00
19236;BME280;9752;54.270;12.470;2023-03-20T15:02:23;101831.03;;;8.08;100.00
19236;BME280;9752;54.270;12.470;2023-03-20T15:07:28;101834.00;;;8.02;100.00
19236;BME280;9752;54.270;12.470;2023-03-20T15:12:34;101836.81;;;7.95;100.00
19236;BME280;9752;54.270;12.470;2023-03-20T15:17:43;101828.19;;;8.05;100.00
19236;BME280;9752;54.270;12.470;2023-03-20T15:22:48;101832.56;;;8.06;100.00
19236;BME280;9752;54.270;12.470;2023-03-20T15:27:50;101821.84;;;8.12;100.00
19236;BME280;9752;54.270;12.470;2023-03-20T15:32:53;101805.44;;;8.01;100.00
19236;BME280;9752;54.270;12.470;2023-03-20T15:37:57;101801.53;;;8.06;100.00
19236;BME280;9752;54.270;12.470;2023-03-20T15:43:11;101790.69;;;8.00;100.00
19236;BME280;9752;54.270;12.470;2023-03-20T15:48:16;101792.09;;;7.96;100.00
19236;BME280;9752;54.270;12.470;2023-03-20T15:53:20;101788.03;;;7.69;100.00
19236;BME280;9752;54.270;12.470;2023-03-20T15:58:26;101795.50;;;7.66;100.00
19236;BME280;9752;54.270;12.470;2023-03-20T16:03:34;101803.03;;;7.73;100.00
19236;BME280;9752;54.270;12.470;2023-03-20T16:08:37;101799.81;;;7.76;100.00
19236;BME280;9752;54.270;12.470;2023-03-20T16:13:41;101795.81;;;7.79;100.00
19236;BME280;9752;54.270;12.470;2023-03-20T16:18:47;101795.19;;;7.92;100.00
19236;BME280;9752;54.270;12.470;2023-03-20T16:23:51;101796.38;;;7.96;100.00
19236;BME280;9752;54.270;12.470;2023-03-20T16:28:55;101796.66;;;7.99;100.00
19236;BME280;9752;54.270;12.470;2023-03-20T16:34:00;101796.59;;;7.89;100.00
19236;BME280;9752;54.270;12.470;2023-03-20T16:39:06;101802.81;;;7.91;100.00
19236;BME280;9752;54.270;12.470;2023-03-20T16:44:12;101794.03;;;7.89;100.00
19236;BME280;9752;54.270;12.470;2023-03-20T16:55:03;101785.88;;;7.84;100.00
19236;BME280;9752;54.270;12.470;2023-03-20T17:00:07;101789.50;;;7.86;100.00
19236;BME280;9752;54.270;12.470;2023-03-20T17:05:20;101791.06;;;7.84;100.00
19236;BME280;9752;54.270;12.470;2023-03-20T17:10:24;101792.22;;;7.88;100.00
19236;BME280;9752;54.270;12.470;2023-03-20T17:15:27;101801.38;;;7.84;100.00
19236;BME280;9752;54.270;12.470;2023-03-20T17:20:30;101797.34;;;7.77;100.00
19236;BME280;9752;54.270;12.470;2023-03-20T17:25:31;101794.47;;;7.64;100.00
19236;BME280;9752;54.270;12.470;2023-03-20T17:30:33;101789.72;;;7.69;100.00
19236;BME280;9752;54.270;12.470;2023-03-20T17:35:36;101789.41;;;7.55;100.00
19236;BME280;9752;54.270;12.470;2023-03-20T17:40:38;101792.34;;;7.50;100.00
19236;BME280;9752;54.270;12.470;2023-03-20T17:45:40;101792.50;;;7.51;100.00
19236;BME280;9752;54.270;12.470;2023-03-20T17:50:44;101797.88;;;7.44;100.00
19236;BME280;9752;54.270;12.470;2023-03-20T17:55:46;101805.78;;;7.46;100.00
19236;BME280;9752;54.270;12.470;2023-03-20T18:00:48;101810.16;;;7.47;100.00
19236;BME280;9752;54.270;12.470;2023-03-20T18:05:51;101819.94;;;7.40;100.00
19236;BME280;9752;54.270;12.470;2023-03-20T18:10:53;101821.63;;;7.40;100.00
19236;BME280;9752;54.270;12.470;2023-03-20T18:15:57;101826.50;;;7.37;100.00
19236;BME280;9752;54.270;12.470;2023-03-20T18:21:00;101818.34;;;7.32;100.00
19236;BME280;9752;54.270;12.470;2023-03-20T18:26:01;101822.69;;;7.23;100.00
19236;BME280;9752;54.270;12.470;2023-03-20T18:31:03;101826.91;;;7.22;100.00
19236;BME280;9752;54.270;12.470;2023-03-20T18:36:09;101831.88;;;7.11;100.00
19236;BME280;9752;54.270;12.470;2023-03-20T18:41:13;101837.13;;;7.21;100.00
19236;BME280;9752;54.270;12.470;2023-03-20T18:46:16;101844.88;;;7.21;100.00
19236;BME280;9752;54.270;12.470;2023-03-20T18:51:20;101846.66;;;7.22;100.00
19236;BME280;9752;54.270;12.470;2023-03-20T18:56:23;101858.31;;;7.27;100.00
19236;BME280;9752;54.270;12.470;2023-03-20T19:01:25;101856.13;;;7.32;100.00
19236;BME280;9752;54.270;12.470;2023-03-20T19:06:28;101848.69;;;7.35;100.00
19236;BME280;9752;54.270;12.470;2023-03-20T19:11:31;101854.38;;;7.41;100.00
19236;BME280;9752;54.270;12.470;2023-03-20T19:16:34;101842.88;;;7.37;100.00
19236;BME280;9752;54.270;12.470;2023-03-20T19:21:38;101841.84;;;7.35;100.00
19236;BME280;9752;54.270;12.470;2023-03-20T19:26:41;101845.94;;;7.33;100.00
19236;BME280;9752;54.270;12.470;2023-03-20T19:31:42;101848.25;;;7.30;100.00
19236;BME280;9752;54.270;12.470;2023-03-20T19:36:46;101853.66;;;7.23;100.00
19236;BME280;9752;54.270;12.470;2023-03-20T19:41:48;101859.00;;;7.16;100.00
19236;BME280;9752;54.270;12.470;2023-03-20T19:46:51;101878.59;;;7.14;100.00
19236;BME280;9752;54.270;12.470;2023-03-20T19:51:53;101884.38;;;7.11;100.00
19236;BME280;9752;54.270;12.470;2023-03-20T19:56:55;101904.06;;;7.00;100.00
19236;BME280;9752;54.270;12.470;2023-03-20T20:01:58;101915.75;;;6.97;100.00
19236;BME280;9752;54.270;12.470;2023-03-20T20:07:01;101935.38;;;6.86;100.00
19236;BME280;9752;54.270;12.470;2023-03-20T20:12:03;101970.44;;;6.84;100.00
19236;BME280;9752;54.270;12.470;2023-03-20T20:17:05;101981.72;;;6.67;100.00
19236;BME280;9752;54.270;12.470;2023-03-20T20:22:08;102006.63;;;6.58;100.00
19236;BME280;9752;54.270;12.470;2023-03-20T20:27:10;102033.81;;;6.45;100.00
19236;BME280;9752;54.270;12.470;2023-03-20T20:32:12;102060.81;;;6.49;100.00
19236;BME280;9752;54.270;12.470;2023-03-20T20:37:15;102098.69;;;6.50;100.00
19236;BME280;9752;54.270;12.470;2023-03-20T20:42:17;102116.00;;;6.42;100.00
19236;BME280;9752;54.270;12.470;2023-03-20T20:47:19;102140.09;;;6.43;100.00
19236;BME280;9752;54.270;12.470;2023-03-20T20:52:22;102143.75;;;6.45;100.00
19236;BME280;9752;54.270;12.470;2023-03-20T20:57:24;102167.69;;;6.44;100.00
19236;BME280;9752;54.270;12.470;2023-03-20T21:02:27;102184.06;;;6.53;100.00
19236;BME280;9752;54.270;12.470;2023-03-20T21:07:30;102210.31;;;6.49;100.00
19236;BME280;9752;54.270;12.470;2023-03-20T21:12:32;102223.19;;;6.58;100.00
19236;BME280;9752;54.270;12.470;2023-03-20T21:17:34;102244.41;;;6.55;100.00
19236;BME280;9752;54.270;12.470;2023-03-20T21:22:37;102253.97;;;6.56;100.00
19236;BME280;9752;54.270;12.470;2023-03-20T21:27:40;102267.47;;;6.54;100.00
19236;BME280;9752;54.270;12.470;2023-03-20T21:32:41;102286.72;;;6.57;100.00
19236;BME280;9752;54.270;12.470;2023-03-20T21:37:44;102287.63;;;6.58;100.00
19236;BME280;9752;54.270;12.470;2023-03-20T21:42:46;102293.53;;;6.48;100.00
19236;BME280;9752;54.270;12.470;2023-03-20T21:47:48;102309.91;;;6.49;100.00
19236;BME280;9752;54.270;12.470;2023-03-20T21:52:51;102319.47;;;6.50;100.00
19236;BME280;9752;54.270;12.470;2023-03-20T21:57:53;102332.53;;;6.51;100.00
19236;BME280;9752;54.270;12.470;2023-03-20T22:02:55;102337.84;;;6.53;100.00
19236;BME280;9752;54.270;12.470;2023-03-20T22:07:58;102356.03;;;6.63;100.00
19236;BME280;9752;54.270;12.470;2023-03-20T22:12:59;102359.34;;;6.62;100.00
19236;BME280;9752;54.270;12.470;2023-03-20T22:18:01;102362.69;;;6.52;100.00
19236;BME280;9752;54.270;12.470;2023-03-20T22:23:04;102368.78;;;6.61;100.00
19236;BME280;9752;54.270;12.470;2023-03-20T22:28:06;102369.22;;;6.57;100.00
19236;BME280;9752;54.270;12.470;2023-03-20T22:33:07;102368.47;;;6.58;100.00
19236;BME280;9752;54.270;12.470;2023-03-20T22:38:11;102372.25;;;6.53;100.00
19236;BME280;9752;54.270;12.470;2023-03-20T22:43:13;102375.13;;;6.56;100.00
19236;BME280;9752;54.270;12.470;2023-03-20T22:48:15;102385.31;;;6.63;100.00
19236;BME280;9752;54.270;12.470;2023-03-20T22:53:18;102393.66;;;6.61;100.00
19236;BME280;9752;54.270;12.470;2023-03-20T22:58:19;102398.53;;;6.67;100.00
19236;BME280;9752;54.270;12.470;2023-03-20T23:03:21;102401.09;;;6.67;100.00
19236;BME280;9752;54.270;12.470;2023-03-20T23:08:24;102403.84;;;6.68;100.00
19236;BME280;9752;54.270;12.470;2023-03-20T23:13:25;102400.31;;;6.68;100.00
19236;BME280;9752;54.270;12.470;2023-03-20T23:18:27;102410.97;;;6.71;100.00
19236;BME280;9752;54.270;12.470;2023-03-20T23:23:30;102414.31;;;6.70;100.00
19236;BME280;9752;54.270;12.470;2023-03-20T23:28:33;102411.28;;;6.74;100.00
19236;BME280;9752;54.270;12.470;2023-03-20T23:33:35;102420.53;;;6.72;100.00
19236;BME280;9752;54.270;12.470;2023-03-20T23:38:38;102418.25;;;6.75;100.00
19236;BME280;9752;54.270;12.470;2023-03-20T23:43:39;102420.25;;;6.77;100.00
19236;BME280;9752;54.270;12.470;2023-03-20T23:48:41;102418.72;;;6.79;100.00
19236;BME280;9752;54.270;12.470;2023-03-20T23:53:44;102421.00;;;6.76;100.00
19236;BME280;9752;54.270;12.470;2023-03-20T23:58:46;102421.16;;;6.87;100.00
